Time;durP1;ratioP1;P1;durP2;ratioP2;P2;SDS_P1;SDS_P2;PMS_P1;PMS_P2;Temp;Humidity;BMP_temperature;BMP_pressure;BME280_temperature;BME280_humidity;BME280_pressure;Samples;Min_cycle;Max_cycle;Signal;HPM_P1;HPM_P2
2022/12/26 00:02:16;;;;;;;0.00;0.00;;;5.60;99.90;;;;;;5020235;28;20520;-73
2022/12/26 00:04:42;;;;;;;0.00;0.00;;;5.50;99.90;;;;;;5021138;28;20033;-73
2022/12/26 00:07:09;;;;;;;0.00;0.00;;;5.40;99.90;;;;;;5021291;28;20044;-73
2022/12/26 00:09:34;;;;;;;;;;;5.40;99.90;;;;;;5037705;28;20028;-73
2022/12/26 00:12:01;;;;;;;0.00;0.00;;;5.40;99.90;;;;;;5020881;28;20388;-74
2022/12/26 00:14:28;;;;;;;;;;;5.40;99.90;;;;;;5024476;28;20065;-73
2022/12/26 00:16:55;;;;;;;0.00;0.00;;;5.40;99.90;;;;;;5020025;28;20554;-74
2022/12/26 00:19:25;;;;;;;0.25;0.20;;;5.40;99.90;;;;;;5027922;28;20026;-73
2022/12/26 00:21:51;;;;;;;0.73;0.70;;;5.40;99.90;;;;;;5022348;28;20728;-73
2022/12/26 00:24:20;;;;;;;0.00;0.00;;;5.40;99.90;;;;;;5026169;28;20029;-73
2022/12/26 00:26:51;;;;;;;0.00;0.00;;;5.40;99.90;;;;;;5022247;28;20044;-73
2022/12/26 00:29:21;;;;;;;0.00;0.00;;;5.40;99.90;;;;;;5024037;28;20627;-72
2022/12/26 00:31:48;;;;;;;2.00;0.65;;;5.40;99.90;;;;;;5022948;28;20067;-73
2022/12/26 00:34:14;;;;;;;0.45;0.45;;;5.40;99.90;;;;;;5022595;28;20113;-73
2022/12/26 00:36:40;;;;;;;0.00;0.00;;;5.40;99.90;;;;;;5023069;28;20156;-73
2022/12/26 00:39:07;;;;;;;0.00;0.00;;;5.40;99.90;;;;;;5020063;28;20045;-74
2022/12/26 00:41:38;;;;;;;0.00;0.00;;;5.40;99.90;;;;;;5021216;28;20535;-73
2022/12/26 00:44:04;;;;;;;0.00;0.00;;;5.40;99.90;;;;;;5041105;28;20165;-73
2022/12/26 00:46:34;;;;;;;0.00;0.00;;;5.40;99.90;;;;;;5028610;28;20022;-73
2022/12/26 00:48:59;;;;;;;0.00;0.00;;;5.40;99.90;;;;;;5022170;28;20039;-73
2022/12/26 00:51:26;;;;;;;0.00;0.00;;;5.40;99.90;;;;;;5021250;28;20458;-73
2022/12/26 00:53:52;;;;;;;0.00;0.00;;;5.40;99.90;;;;;;5029284;28;20036;-73
2022/12/26 00:56:20;;;;;;;0.00;0.00;;;5.40;99.90;;;;;;5024935;28;20025;-73
2022/12/26 00:58:47;;;;;;;0.00;0.00;;;5.40;99.90;;;;;;5019468;28;20203;-74
2022/12/26 01:01:16;;;;;;;;;;;5.40;99.90;;;;;;5025831;28;20025;-73
2022/12/26 01:03:47;;;;;;;0.00;0.00;;;5.30;99.90;;;;;;5016620;28;19935;-73
2022/12/26 01:06:13;;;;;;;0.00;0.00;;;5.20;99.90;;;;;;5019919;28;20072;-73
2022/12/26 01:08:41;;;;;;;0.28;0.28;;;5.30;99.90;;;;;;5022440;28;20721;-73
2022/12/26 01:11:11;;;;;;;0.00;0.00;;;5.30;99.90;;;;;;5022265;28;20025;-73
2022/12/26 01:13:36;;;;;;;0.00;0.00;;;5.40;99.90;;;;;;5023033;28;20013;-73
2022/12/26 01:16:05;;;;;;;0.13;0.10;;;5.40;99.90;;;;;;5023441;28;20048;-73
2022/12/26 01:18:32;;;;;;;0.00;0.00;;;5.40;99.90;;;;;;5020687;28;20119;-74
2022/12/26 01:21:15;;;;;;;0.00;0.00;;;5.40;99.90;;;;;;5021521;28;20144;-74
2022/12/26 01:23:44;;;;;;;0.00;0.00;;;5.40;99.90;;;;;;5020537;28;20710;-73
2022/12/26 01:26:10;;;;;;;0.00;0.00;;;5.40;99.90;;;;;;5021018;28;20119;-73
2022/12/26 01:28:35;;;;;;;0.20;0.20;;;5.40;99.90;;;;;;5022713;28;20587;-74
2022/12/26 01:31:03;;;;;;;0.10;0.10;;;5.50;99.90;;;;;;5028116;28;20679;-73
2022/12/26 01:33:30;;;;;;;0.00;0.00;;;5.60;99.90;;;;;;5020817;28;20025;-73
2022/12/26 01:35:56;;;;;;;0.00;0.00;;;5.70;99.90;;;;;;5024958;28;20029;-73
2022/12/26 01:38:23;;;;;;;;;;;5.70;99.90;;;;;;5022837;28;20021;-73
2022/12/26 01:41:15;;;;;;;0.00;0.00;;;5.70;99.90;;;;;;5034500;28;19910;-73
2022/12/26 01:44:06;;;;;;;0.00;0.00;;;5.80;99.90;;;;;;5023358;28;20029;-73
2022/12/26 01:46:31;;;;;;;0.00;0.00;;;5.80;99.90;;;;;;5010198;28;20045;-74
2022/12/26 01:49:34;;;;;;;0.07;0.07;;;5.90;99.90;;;;;;5022568;28;20033;-73
2022/12/26 01:52:05;;;;;;;0.00;0.00;;;5.80;99.90;;;;;;4998713;28;20029;-73
2022/12/26 01:54:36;;;;;;;0.00;0.00;;;5.80;99.90;;;;;;5022109;28;20031;-73
2022/12/26 01:57:23;;;;;;;0.00;0.00;;;5.80;99.90;;;;;;5018324;28;20766;-73
2022/12/26 01:59:54;;;;;;;0.20;0.20;;;5.90;99.90;;;;;;5042133;28;20391;-73
2022/12/26 02:02:24;;;;;;;0.00;0.00;;;5.90;99.90;;;;;;5024547;28;20013;-74
2022/12/26 02:07:44;;;;;;;0.00;0.00;;;5.90;99.90;;;;;;5013706;28;20041;-73
2022/12/26 02:10:15;;;;;;;0.20;0.20;;;6.00;99.90;;;;;;5020065;28;20478;-74
2022/12/26 02:12:42;;;;;;;0.08;0.08;;;6.00;99.90;;;;;;5018513;28;20024;-74
2022/12/26 02:15:12;;;;;;;0.00;0.00;;;6.00;99.90;;;;;;5020902;28;20783;-73
2022/12/26 02:17:41;;;;;;;0.00;0.00;;;6.00;99.90;;;;;;5020990;28;21358;-73
2022/12/26 02:20:32;;;;;;;0.00;0.00;;;6.10;99.90;;;;;;5018840;28;20075;-73
2022/12/26 02:23:22;;;;;;;0.00;0.00;;;6.10;99.90;;;;;;5024057;28;20530;-74
2022/12/26 02:26:03;;;;;;;0.00;0.00;;;6.10;99.90;;;;;;5019325;28;20061;-73
2022/12/26 02:29:07;;;;;;;0.00;0.00;;;6.10;99.90;;;;;;5024579;28;20024;-73
2022/12/26 02:31:55;;;;;;;0.00;0.00;;;6.10;99.90;;;;;;5023711;28;20055;-73
2022/12/26 02:34:47;;;;;;;0.00;0.00;;;6.00;99.90;;;;;;5013541;28;20360;-73
2022/12/26 02:37:34;;;;;;;0.52;0.52;;;6.00;99.90;;;;;;5015779;28;20585;-73
2022/12/26 02:40:29;;;;;;;0.47;0.32;;;5.90;99.90;;;;;;5022980;28;20037;-73
2022/12/26 02:43:04;;;;;;;0.00;0.00;;;5.90;99.90;;;;;;5038195;28;20060;-73
2022/12/26 02:48:27;;;;;;;0.30;0.30;;;5.80;99.90;;;;;;5019221;28;20060;-73
2022/12/26 03:15:09;;;;;;;0.00;0.00;;;5.60;99.90;;;;;;5014854;28;20679;-73
2022/12/26 03:17:38;;;;;;;0.00;0.00;;;5.70;99.90;;;;;;5018289;28;20033;-72
2022/12/26 03:20:16;;;;;;;0.10;0.10;;;5.70;99.90;;;;;;5022890;28;20025;-73
2022/12/26 03:23:01;;;;;;;0.00;0.00;;;5.70;99.90;;;;;;5022587;28;20086;-73
2022/12/26 03:28:30;;;;;;;0.00;0.00;;;5.80;99.90;;;;;;5025026;28;20382;-74
2022/12/26 03:31:05;;;;;;;0.00;0.00;;;5.80;99.90;;;;;;5022089;28;20017;-73
2022/12/26 03:36:38;;;;;;;0.00;0.00;;;5.80;99.90;;;;;;5022678;28;20044;-73
2022/12/26 04:20:48;;;;;;;0.05;0.05;;;5.50;99.90;;;;;;5022402;28;20115;-73
2022/12/26 04:44:10;;;;;;;0.00;0.00;;;5.60;99.90;;;;;;5030523;28;20052;-73
2022/12/26 04:46:41;;;;;;;0.00;0.00;;;5.50;99.90;;;;;;5036979;28;20485;-73
2022/12/26 04:52:01;;;;;;;0.00;0.00;;;5.50;99.90;;;;;;5022274;28;20075;-73
2022/12/26 04:54:27;;;;;;;0.00;0.00;;;5.60;99.90;;;;;;5022165;28;20117;-73
2022/12/26 04:56:55;;;;;;;;;;;5.60;99.90;;;;;;5021642;28;20029;-73
2022/12/26 04:59:27;;;;;;;0.05;0.05;;;5.50;99.90;;;;;;5025198;28;19905;-73
2022/12/26 05:10:24;;;;;;;0.25;0.25;;;5.40;99.90;;;;;;5023650;28;20035;-73
2022/12/26 05:12:52;;;;;;;0.00;0.00;;;5.60;99.90;;;;;;5021581;28;20017;-73
2022/12/26 05:15:18;;;;;;;0.00;0.00;;;5.70;99.90;;;;;;5022491;28;20866;-73
2022/12/26 05:29:06;;;;;;;0.00;0.00;;;5.80;99.90;;;;;;5020262;28;20091;-73
2022/12/26 05:31:33;;;;;;;0.03;0.03;;;5.80;99.90;;;;;;5019068;28;20022;-74
2022/12/26 05:34:11;;;;;;;0.00;0.00;;;5.80;99.90;;;;;;5018202;28;20084;-73
2022/12/26 05:36:43;;;;;;;0.00;0.00;;;5.80;99.90;;;;;;5021181;28;20017;-73
2022/12/26 05:39:11;;;;;;;0.00;0.00;;;5.80;99.90;;;;;;5020875;28;20040;-73
2022/12/26 05:41:40;;;;;;;0.80;0.75;;;5.80;99.90;;;;;;5020623;28;20047;-73
2022/12/26 05:44:06;;;;;;;0.00;0.00;;;5.80;99.90;;;;;;5022706;28;20029;-72
2022/12/26 05:46:41;;;;;;;0.00;0.00;;;5.80;99.90;;;;;;5029752;28;20017;-73
2022/12/26 05:49:07;;;;;;;0.00;0.00;;;5.80;99.90;;;;;;5015730;28;20045;-73
2022/12/26 05:51:34;;;;;;;0.25;0.25;;;5.70;99.90;;;;;;5021027;28;20101;-73
2022/12/26 05:54:01;;;;;;;0.10;0.10;;;5.70;99.90;;;;;;5021546;28;20052;-73
2022/12/26 05:56:33;;;;;;;0.00;0.00;;;5.70;99.90;;;;;;5025192;28;20087;-73
2022/12/26 05:59:00;;;;;;;0.00;0.00;;;5.70;99.90;;;;;;5026946;28;20057;-73
2022/12/26 06:01:29;;;;;;;0.00;0.00;;;5.70;99.90;;;;;;5016012;28;20124;-73
2022/12/26 06:03:58;;;;;;;0.10;0.10;;;5.60;99.90;;;;;;5023551;28;20413;-74
2022/12/26 06:06:26;;;;;;;0.00;0.00;;;5.60;99.90;;;;;;5020531;28;20056;-73
2022/12/26 06:08:53;;;;;;;0.00;0.00;;;5.70;99.90;;;;;;5021035;28;20013;-72
2022/12/26 06:11:20;;;;;;;0.00;0.00;;;5.70;99.90;;;;;;5024926;28;20051;-73
2022/12/26 06:13:49;;;;;;;0.00;0.00;;;5.80;99.90;;;;;;5022830;28;20825;-73
2022/12/26 06:16:17;;;;;;;0.00;0.00;;;5.80;99.90;;;;;;5024461;28;20029;-73
2022/12/26 06:18:44;;;;;;;0.00;0.00;;;5.80;99.90;;;;;;5021875;28;20025;-73
2022/12/26 06:21:18;;;;;;;0.00;0.00;;;5.90;99.90;;;;;;5020026;28;20032;-73
2022/12/26 06:23:44;;;;;;;0.00;0.00;;;5.90;99.90;;;;;;5017566;28;20026;-73
2022/12/26 06:26:16;;;;;;;0.00;0.00;;;5.90;99.90;;;;;;5020882;28;20021;-73
2022/12/26 06:28:46;;;;;;;0.00;0.00;;;5.80;99.90;;;;;;5024305;28;20029;-73
2022/12/26 06:31:19;;;;;;;0.00;0.00;;;5.90;99.90;;;;;;5016628;28;20009;-74
2022/12/26 06:33:54;;;;;;;0.00;0.00;;;5.90;99.90;;;;;;5020758;28;20005;-72
2022/12/26 06:36:25;;;;;;;0.00;0.00;;;5.90;99.90;;;;;;5015742;28;20028;-73
2022/12/26 06:38:51;;;;;;;0.00;0.00;;;5.90;99.90;;;;;;5022648;28;20092;-74
2022/12/26 06:41:24;;;;;;;0.00;0.00;;;5.90;99.90;;;;;;5020570;28;20101;-73
2022/12/26 06:43:51;;;;;;;0.10;0.10;;;5.90;99.90;;;;;;5021787;28;20033;-72
2022/12/26 06:46:23;;;;;;;;;;;5.90;99.90;;;;;;5018344;28;20049;-74
2022/12/26 06:48:52;;;;;;;0.00;0.00;;;5.90;99.90;;;;;;5022886;28;19996;-73
2022/12/26 06:51:21;;;;;;;0.00;0.00;;;5.90;99.90;;;;;;5017098;28;20029;-73
2022/12/26 06:53:48;;;;;;;0.00;0.00;;;5.90;99.90;;;;;;5023230;28;20022;-73
2022/12/26 06:56:19;;;;;;;0.00;0.00;;;5.90;99.90;;;;;;5023232;28;20097;-73
2022/12/26 06:58:46;;;;;;;0.00;0.00;;;5.90;99.90;;;;;;5036828;28;20701;-73
2022/12/26 07:01:16;;;;;;;0.00;0.00;;;5.90;99.90;;;;;;5022469;28;20024;-74
2022/12/26 07:03:42;;;;;;;0.00;0.00;;;5.90;99.90;;;;;;5023032;28;20029;-73
2022/12/26 07:06:28;;;;;;;;;;;5.90;99.90;;;;;;5022847;28;20028;-73
2022/12/26 07:09:01;;;;;;;0.00;0.00;;;5.90;99.90;;;;;;5026670;28;19910;-73
2022/12/26 07:11:29;;;;;;;0.00;0.00;;;5.90;99.90;;;;;;5019487;28;20024;-74
2022/12/26 07:13:56;;;;;;;0.00;0.00;;;5.90;99.90;;;;;;5029812;28;20549;-74
2022/12/26 07:16:25;;;;;;;0.20;0.20;;;6.00;99.90;;;;;;5023231;28;20028;-74
2022/12/26 07:18:55;;;;;;;0.00;0.00;;;6.00;99.90;;;;;;5023060;28;20022;-73
2022/12/26 07:21:24;;;;;;;0.00;0.00;;;6.00;99.90;;;;;;5024178;28;20043;-73
2022/12/26 07:23:52;;;;;;;0.00;0.00;;;5.90;99.90;;;;;;5024495;28;20028;-73
2022/12/26 07:26:21;;;;;;;0.00;0.00;;;6.00;99.90;;;;;;5021993;28;20024;-73
2022/12/26 07:28:47;;;;;;;0.10;0.10;;;6.00;99.90;;;;;;5023872;28;20028;-74
2022/12/26 07:31:22;;;;;;;0.10;0.10;;;6.00;99.90;;;;;;5021180;28;20026;-73
2022/12/26 07:33:53;;;;;;;0.00;0.00;;;6.00;99.90;;;;;;5023395;28;20653;-73
2022/12/26 07:36:26;;;;;;;0.00;0.00;;;6.10;99.90;;;;;;5023590;28;20084;-73
2022/12/26 07:38:57;;;;;;;0.00;0.00;;;6.10;99.90;;;;;;5032137;28;20471;-73
2022/12/26 07:44:09;;;;;;;0.00;0.00;;;6.10;99.90;;;;;;5026687;28;20028;-73
2022/12/26 07:46:36;;;;;;;0.00;0.00;;;5.90;99.90;;;;;;5026109;28;20471;-73
2022/12/26 07:49:02;;;;;;;0.08;0.08;;;5.80;99.90;;;;;;5024509;28;20036;-73
2022/12/26 07:51:29;;;;;;;0.00;0.00;;;5.80;99.90;;;;;;5023771;28;20828;-73
2022/12/26 07:54:01;;;;;;;0.40;0.40;;;5.90;99.90;;;;;;5021609;28;20260;-73
2022/12/26 07:56:27;;;;;;;0.00;0.00;;;5.90;99.90;;;;;;5026618;28;20087;-73
2022/12/26 07:58:56;;;;;;;;;;;5.90;99.90;;;;;;5036131;28;20068;-72
2022/12/26 08:01:22;;;;;;;0.10;0.10;;;5.90;99.90;;;;;;5021585;28;19932;-73
2022/12/26 08:03:51;;;;;;;0.77;0.57;;;6.00;99.90;;;;;;5022522;28;20021;-73
2022/12/26 08:06:18;;;;;;;0.00;0.00;;;6.00;99.90;;;;;;5027282;28;20024;-73
2022/12/26 08:08:44;;;;;;;0.52;0.52;;;5.90;99.90;;;;;;5017137;28;20041;-73
2022/12/26 08:11:17;;;;;;;0.00;0.00;;;6.00;99.90;;;;;;5020554;28;20783;-73
2022/12/26 08:13:43;;;;;;;0.00;0.00;;;6.30;99.90;;;;;;5024501;28;20037;-73
2022/12/26 08:16:11;;;;;;;0.10;0.10;;;6.30;99.90;;;;;;5021782;28;20044;-72
2022/12/26 08:18:39;;;;;;;0.00;0.00;;;6.30;99.90;;;;;;5020885;28;20453;-72
2022/12/26 08:21:05;;;;;;;0.00;0.00;;;6.40;99.90;;;;;;5022969;28;20104;-73
2022/12/26 08:23:32;;;;;;;0.00;0.00;;;6.40;99.90;;;;;;5016841;28;20109;-73
2022/12/26 08:26:07;;;;;;;0.00;0.00;;;6.50;99.90;;;;;;5026453;28;20029;-74
2022/12/26 08:28:34;;;;;;;0.00;0.00;;;6.70;99.90;;;;;;5023694;28;20025;-73
2022/12/26 08:31:06;;;;;;;0.00;0.00;;;6.70;99.90;;;;;;5024489;28;20681;-72
2022/12/26 08:33:33;;;;;;;0.00;0.00;;;6.40;99.90;;;;;;5026851;28;20036;-73
2022/12/26 08:36:04;;;;;;;0.00;0.00;;;6.30;99.90;;;;;;5022748;28;20018;-71
2022/12/26 08:38:31;;;;;;;0.00;0.00;;;6.20;99.90;;;;;;5021878;28;20462;-72
2022/12/26 08:40:57;;;;;;;;;;;6.00;99.90;;;;;;5022714;28;20025;-72
2022/12/26 08:43:26;;;;;;;0.00;0.00;;;6.10;99.90;;;;;;5026373;28;19987;-73
2022/12/26 08:46:02;;;;;;;0.00;0.00;;;6.10;99.90;;;;;;5025612;28;20060;-72
2022/12/26 08:48:29;;;;;;;0.00;0.00;;;6.10;99.90;;;;;;5018683;28;20029;-73
2022/12/26 08:51:00;;;;;;;0.00;0.00;;;6.10;99.90;;;;;;5020392;28;20024;-73
2022/12/26 08:53:29;;;;;;;0.00;0.00;;;6.00;99.90;;;;;;5031253;28;20370;-72
2022/12/26 08:55:56;;;;;;;0.00;0.00;;;6.10;99.90;;;;;;5022889;28;20052;-73
2022/12/26 08:58:25;;;;;;;;;;;6.20;99.90;;;;;;5024846;28;20028;-73
2022/12/26 09:01:03;;;;;;;0.00;0.00;;;6.10;99.90;;;;;;5018411;28;20259;-73
2022/12/26 09:03:32;;;;;;;0.20;0.20;;;6.00;99.90;;;;;;5020647;28;20072;-72
2022/12/26 09:06:01;;;;;;;0.00;0.00;;;6.10;99.90;;;;;;5025097;28;20044;-73
2022/12/26 09:08:29;;;;;;;0.00;0.00;;;6.20;99.90;;;;;;5027356;28;20051;-73
2022/12/26 09:11:00;;;;;;;0.57;0.13;;;6.20;99.90;;;;;;5021686;28;20028;-73
2022/12/26 09:13:27;;;;;;;0.20;0.20;;;6.40;99.90;;;;;;5023402;28;20101;-72
2022/12/26 09:15:53;;;;;;;0.00;0.00;;;6.50;99.90;;;;;;5021802;28;20048;-72
2022/12/26 09:18:19;;;;;;;0.00;0.00;;;6.80;99.90;;;;;;5014839;28;20738;-73
2022/12/26 09:20:47;;;;;;;0.00;0.00;;;7.10;99.90;;;;;;5022300;28;20047;-72
2022/12/26 09:23:14;;;;;;;0.00;0.00;;;7.50;99.90;;;;;;5020708;28;20785;-71
2022/12/26 09:25:41;;;;;;;0.00;0.00;;;7.50;99.90;;;;;;5021291;28;20391;-73
2022/12/26 09:28:10;;;;;;;0.00;0.00;;;7.60;99.90;;;;;;5024283;28;20143;-73
2022/12/26 09:30:36;;;;;;;0.05;0.05;;;7.60;99.90;;;;;;5017932;28;20044;-73
2022/12/26 09:33:06;;;;;;;0.00;0.00;;;7.70;99.90;;;;;;5022636;28;20029;-73
2022/12/26 09:35:32;;;;;;;0.00;0.00;;;7.70;99.90;;;;;;5018378;28;20032;-73
2022/12/26 09:37:58;;;;;;;0.00;0.00;;;7.60;99.90;;;;;;5020222;28;20033;-73
2022/12/26 09:40:31;;;;;;;0.00;0.00;;;7.50;99.90;;;;;;5024304;28;20060;-73
2022/12/26 09:43:29;;;;;;;0.00;0.00;;;7.50;99.90;;;;;;5024132;28;20035;-73
2022/12/26 09:46:20;;;;;;;0.00;0.00;;;7.50;99.90;;;;;;5030299;28;20021;-73
2022/12/26 09:48:57;;;;;;;0.00;0.00;;;7.60;99.90;;;;;;5022527;28;20044;-72
2022/12/26 09:51:25;;;;;;;1.55;0.30;;;7.60;99.90;;;;;;5023073;28;20024;-73
2022/12/26 09:53:58;;;;;;;0.00;0.00;;;7.50;99.90;;;;;;5015068;28;20090;-73
2022/12/26 09:56:26;;;;;;;0.25;0.25;;;7.40;99.90;;;;;;5039444;28;20017;-72
2022/12/26 09:58:57;;;;;;;0.00;0.00;;;7.50;99.90;;;;;;5025807;28;20005;-73
2022/12/26 10:01:29;;;;;;;0.00;0.00;;;7.70;99.90;;;;;;5019972;28;20018;-72
2022/12/26 10:03:59;;;;;;;0.10;0.10;;;7.80;99.90;;;;;;5022970;28;20025;-73
2022/12/26 10:06:26;;;;;;;0.00;0.00;;;7.80;99.90;;;;;;5029826;28;20025;-72
2022/12/26 10:09:04;;;;;;;0.00;0.00;;;7.80;99.90;;;;;;5032626;28;20024;-72
2022/12/26 10:12:17;;;;;;;1.95;1.15;;;7.90;99.90;;;;;;5037962;28;20064;-72
2022/12/26 10:15:05;;;;;;;0.00;0.00;;;8.10;99.90;;;;;;5025044;28;20056;-73
2022/12/26 10:17:55;;;;;;;0.00;0.00;;;8.60;99.90;;;;;;5019681;28;20033;-72
2022/12/26 10:20:36;;;;;;;0.25;0.15;;;8.80;99.90;;;;;;5021088;28;20083;-72
2022/12/26 10:23:21;;;;;;;0.00;0.00;;;8.90;99.90;;;;;;5023775;28;20126;-73
2022/12/26 10:26:05;;;;;;;0.30;0.30;;;8.90;99.90;;;;;;5040116;28;20033;-73
2022/12/26 10:29:07;;;;;;;0.00;0.00;;;8.80;99.90;;;;;;5035282;28;20033;-71
2022/12/26 10:31:41;;;;;;;0.00;0.00;;;9.00;99.90;;;;;;5021798;28;20104;-72
2022/12/26 10:34:35;;;;;;;0.00;0.00;;;9.20;99.90;;;;;;5029075;28;20404;-72
2022/12/26 10:37:01;;;;;;;0.28;0.28;;;9.10;99.90;;;;;;5020845;28;20025;-72
2022/12/26 10:39:35;;;;;;;0.00;0.00;;;9.30;99.90;;;;;;5023264;28;20029;-72
2022/12/26 10:42:25;;;;;;;0.50;0.17;;;9.50;99.90;;;;;;5022014;28;20433;-72
2022/12/26 10:44:50;;;;;;;0.00;0.00;;;9.50;99.90;;;;;;5016606;28;20085;-72
2022/12/26 10:47:38;;;;;;;0.07;0.07;;;9.50;99.90;;;;;;5021186;28;20549;-73
2022/12/26 10:50:05;;;;;;;0.05;0.05;;;9.30;99.90;;;;;;5025901;28;20037;-72
2022/12/26 10:52:36;;;;;;;0.00;0.00;;;9.20;99.90;;;;;;5022730;28;20033;-72
2022/12/26 10:55:02;;;;;;;0.10;0.10;;;9.10;99.90;;;;;;5024128;28;20060;-72
2022/12/26 10:57:31;;;;;;;0.00;0.00;;;9.20;99.90;;;;;;5020470;28;20077;-72
2022/12/26 11:00:00;;;;;;;0.00;0.00;;;9.10;99.90;;;;;;5020605;28;20662;-72
2022/12/26 11:02:31;;;;;;;0.15;0.15;;;9.00;99.90;;;;;;5022958;28;20033;-72
2022/12/26 11:05:12;;;;;;;0.45;0.45;;;8.90;99.90;;;;;;5017450;28;20664;-72
2022/12/26 11:07:53;;;;;;;0.00;0.00;;;9.00;99.90;;;;;;5019620;28;20061;-72
2022/12/26 11:10:24;;;;;;;0.00;0.00;;;9.10;99.90;;;;;;5018347;28;20652;-72
2022/12/26 11:12:54;;;;;;;0.00;0.00;;;9.20;99.90;;;;;;5026608;28;20108;-72
2022/12/26 11:15:33;;;;;;;0.10;0.10;;;9.40;99.90;;;;;;5024392;28;20091;-72
2022/12/26 11:18:33;;;;;;;0.00;0.00;;;9.30;99.90;;;;;;5020648;28;20017;-72
2022/12/26 11:21:19;;;;;;;0.10;0.10;;;9.30;99.90;;;;;;5022783;28;20036;-72
2022/12/26 11:23:47;;;;;;;0.32;0.32;;;9.40;99.90;;;;;;5019807;28;20105;-72
2022/12/26 11:26:23;;;;;;;0.25;0.25;;;9.50;99.90;;;;;;5019595;28;20064;-71
2022/12/26 11:29:04;;;;;;;0.22;0.22;;;9.40;99.90;;;;;;5017603;28;20006;-72
2022/12/26 11:31:31;;;;;;;0.32;0.32;;;9.40;99.90;;;;;;5011549;28;20167;-72
2022/12/26 11:34:00;;;;;;;0.00;0.00;;;9.70;99.90;;;;;;5030303;28;20562;-72
2022/12/26 11:36:33;;;;;;;0.00;0.00;;;9.80;99.90;;;;;;5020253;28;20024;-72
2022/12/26 11:39:06;;;;;;;0.15;0.15;;;9.90;99.90;;;;;;5019876;28;20493;-72
2022/12/26 11:41:39;;;;;;;0.00;0.00;;;9.90;99.90;;;;;;5023483;28;20022;-72
2022/12/26 11:44:13;;;;;;;0.00;0.00;;;9.90;99.90;;;;;;5027568;28;20018;-72
2022/12/26 11:46:45;;;;;;;0.05;0.05;;;9.60;99.90;;;;;;5038792;28;20024;-72
2022/12/26 11:49:33;;;;;;;0.52;0.52;;;9.30;99.90;;;;;;5026440;28;20032;-72
2022/12/26 11:52:01;;;;;;;0.00;0.00;;;9.10;99.90;;;;;;5020101;28;20026;-73
2022/12/26 11:54:29;;;;;;;0.57;0.38;;;9.10;99.90;;;;;;5019210;28;20082;-73
2022/12/26 11:57:19;;;;;;;0.45;0.17;;;9.20;99.90;;;;;;5025932;28;20488;-73
2022/12/26 11:59:48;;;;;;;0.00;0.00;;;9.30;99.90;;;;;;5021601;28;20041;-72
2022/12/26 12:02:25;;;;;;;0.10;0.10;;;9.20;99.90;;;;;;5023815;28;20113;-73
2022/12/26 12:04:54;;;;;;;0.10;0.10;;;9.40;99.90;;;;;;5035056;28;20068;-72
2022/12/26 12:07:45;;;;;;;0.10;0.10;;;9.50;99.90;;;;;;5020616;28;20030;-73
2022/12/26 12:10:10;;;;;;;0.10;0.10;;;9.60;99.90;;;;;;5048565;28;20032;-73
2022/12/26 12:12:46;;;;;;;0.10;0.10;;;9.60;99.90;;;;;;5023137;28;20861;-72
2022/12/26 12:15:26;;;;;;;0.10;0.10;;;9.60;99.90;;;;;;5022116;28;20029;-70
2022/12/26 12:18:29;;;;;;;0.00;0.00;;;9.60;99.90;;;;;;5037626;28;20121;-72
2022/12/26 12:20:55;;;;;;;0.52;0.52;;;9.50;99.90;;;;;;5024395;28;20673;-73
2022/12/26 12:23:20;;;;;;;0.00;0.00;;;9.50;99.90;;;;;;5020447;28;20025;-73
2022/12/26 12:25:58;;;;;;;0.00;0.00;;;9.50;99.90;;;;;;5021777;28;20075;-73
2022/12/26 12:28:29;;;;;;;0.10;0.10;;;9.70;99.90;;;;;;5021297;28;20453;-73
2022/12/26 12:31:01;;;;;;;0.00;0.00;;;9.80;99.90;;;;;;5037930;28;20100;-72
2022/12/26 12:33:55;;;;;;;0.15;0.15;;;9.80;99.90;;;;;;5022658;28;20037;-72
2022/12/26 12:36:52;;;;;;;0.45;0.45;;;10.00;99.90;;;;;;5021707;28;20739;-73
2022/12/26 12:39:40;;;;;;;0.00;0.00;;;9.90;99.90;;;;;;5037398;28;20018;-73
2022/12/26 12:42:06;;;;;;;;;;;9.90;99.90;;;;;;5030015;28;20028;-73
2022/12/26 12:44:58;;;;;;;0.00;0.00;;;9.90;99.90;;;;;;5034842;28;19913;-73
2022/12/26 12:47:34;;;;;;;1.00;0.47;;;9.90;99.90;;;;;;5033979;28;20030;-73
2022/12/26 12:50:17;;;;;;;0.00;0.00;;;9.90;99.90;;;;;;5024021;28;20018;-73
2022/12/26 12:53:04;;;;;;;0.00;0.00;;;10.00;99.90;;;;;;5018511;28;20429;-72
2022/12/26 12:55:58;;;;;;;0.00;0.00;;;10.00;99.90;;;;;;5021841;28;21184;-72
2022/12/26 12:58:33;;;;;;;0.00;0.00;;;10.00;99.90;;;;;;5019464;28;20112;-73
2022/12/26 13:01:05;;;;;;;0.00;0.00;;;10.10;99.90;;;;;;5020173;28;20569;-73
2022/12/26 13:03:41;;;;;;;0.00;0.00;;;10.10;99.90;;;;;;5021350;28;20446;-73
2022/12/26 13:06:22;;;;;;;3.40;1.23;;;10.10;99.90;;;;;;5021624;28;20759;-74
2022/12/26 13:09:01;;;;;;;1.25;0.70;;;10.00;99.90;;;;;;5021439;28;20076;-73
2022/12/26 13:11:45;;;;;;;0.00;0.00;;;9.80;99.90;;;;;;5023114;28;20025;-73
2022/12/26 13:14:24;;;;;;;0.03;0.03;;;9.70;99.90;;;;;;5022583;28;20025;-73
2022/12/26 13:17:22;;;;;;;0.00;0.00;;;9.60;99.90;;;;;;5023269;28;20036;-73
2022/12/26 13:20:12;;;;;;;;;;;9.60;99.90;;;;;;5023554;28;20140;-74
2022/12/26 13:25:32;;;;;;;0.73;0.70;;;9.60;99.90;;;;;;5022205;28;20052;-74
2022/12/26 13:28:08;;;;;;;0.52;0.35;;;9.50;99.90;;;;;;5022090;28;20040;-72
2022/12/26 13:30:43;;;;;;;0.05;0.05;;;9.40;99.90;;;;;;5018141;28;20537;-72
2022/12/26 13:33:14;;;;;;;0.00;0.00;;;9.40;99.90;;;;;;5021430;28;20037;-72
2022/12/26 13:35:55;;;;;;;0.10;0.10;;;9.30;99.90;;;;;;5021642;28;20017;-73
2022/12/26 13:38:55;;;;;;;0.10;0.10;;;9.30;99.90;;;;;;5019237;28;20815;-73
2022/12/26 13:44:25;;;;;;;0.00;0.00;;;9.40;99.90;;;;;;5024194;28;20107;-72
2022/12/26 13:46:57;;;;;;;0.00;0.00;;;9.40;99.90;;;;;;5023877;28;20026;-73
2022/12/26 13:49:38;;;;;;;0.00;0.00;;;9.50;99.90;;;;;;5019539;28;20503;-73
2022/12/26 13:52:13;;;;;;;0.52;0.43;;;9.40;99.90;;;;;;5015997;28;20414;-73
2022/12/26 13:54:50;;;;;;;0.10;0.10;;;9.60;99.90;;;;;;5031026;28;20025;-72
2022/12/26 13:57:39;;;;;;;0.88;0.88;;;9.90;99.90;;;;;;5022320;28;20026;-72
2022/12/26 14:00:15;;;;;;;0.00;0.00;;;9.80;99.90;;;;;;5020843;28;20029;-73
2022/12/26 14:03:02;;;;;;;0.10;0.10;;;9.70;99.90;;;;;;5017681;28;20026;-73
2022/12/26 14:05:50;;;;;;;0.47;0.47;;;9.70;99.90;;;;;;5019723;28;20802;-73
2022/12/26 14:09:05;;;;;;;0.00;0.00;;;9.70;99.90;;;;;;5028940;28;20030;-73
2022/12/26 14:12:13;;;;;;;0.00;0.00;;;9.70;99.90;;;;;;5026154;28;20052;-72
2022/12/26 14:15:02;;;;;;;0.00;0.00;;;9.60;99.90;;;;;;5017766;28;20068;-72
2022/12/26 14:17:31;;;;;;;0.65;0.65;;;9.60;99.90;;;;;;5020778;28;20077;-73
2022/12/26 14:20:16;;;;;;;0.28;0.28;;;9.60;99.90;;;;;;5020266;28;20040;-73
2022/12/26 14:22:57;;;;;;;0.10;0.10;;;9.50;99.90;;;;;;5022977;28;20029;-73
2022/12/26 14:25:43;;;;;;;0.28;0.28;;;9.40;99.90;;;;;;5042325;28;20025;-72
2022/12/26 14:28:24;;;;;;;0.00;0.00;;;9.40;99.90;;;;;;5037513;28;20086;-72
2022/12/26 14:30:55;;;;;;;0.00;0.00;;;9.30;99.90;;;;;;5016352;28;20017;-73
2022/12/26 14:33:28;;;;;;;0.10;0.10;;;9.20;99.90;;;;;;5013437;28;20045;-73
2022/12/26 14:36:16;;;;;;;0.00;0.00;;;9.20;99.90;;;;;;5025388;28;20029;-74
2022/12/26 14:38:54;;;;;;;0.20;0.20;;;9.20;99.90;;;;;;5036305;28;20024;-73
2022/12/26 14:44:28;;;;;;;0.55;0.55;;;9.10;99.90;;;;;;5025288;28;20108;-72
2022/12/26 14:46:59;;;;;;;0.22;0.22;;;9.00;99.90;;;;;;5016273;28;20044;-72
2022/12/26 14:49:31;;;;;;;0.00;0.00;;;8.90;99.90;;;;;;5021134;28;20510;-72
2022/12/26 14:52:24;;;;;;;0.00;0.00;;;8.80;99.90;;;;;;5022543;28;20018;-72
2022/12/26 14:54:52;;;;;;;0.30;0.13;;;8.80;99.90;;;;;;5024321;28;20048;-72
2022/12/26 14:57:45;;;;;;;0.00;0.00;;;8.80;99.90;;;;;;5022663;28;20030;-72
2022/12/26 15:00:27;;;;;;;0.15;0.15;;;8.80;99.90;;;;;;5020647;28;20360;-71
2022/12/26 15:03:00;;;;;;;1.42;0.60;;;8.70;99.90;;;;;;5014729;28;20059;-71
2022/12/26 15:05:43;;;;;;;0.00;0.00;;;8.70;99.90;;;;;;5020500;28;20021;-72
2022/12/26 15:08:52;;;;;;;0.00;0.00;;;8.60;99.90;;;;;;5029969;28;20363;-72
2022/12/26 15:11:55;;;;;;;0.00;0.00;;;8.50;99.90;;;;;;5015216;28;20025;-72
2022/12/26 15:14:37;;;;;;;0.00;0.00;;;8.50;99.90;;;;;;5030576;28;20142;-72
2022/12/26 15:17:04;;;;;;;0.30;0.30;;;8.50;99.90;;;;;;5024574;28;20116;-72
2022/12/26 15:19:53;;;;;;;0.03;0.03;;;8.40;99.90;;;;;;5024187;28;20753;-72
2022/12/26 15:22:24;;;;;;;2.55;0.47;;;8.40;99.90;;;;;;5046291;28;20086;-72
2022/12/26 15:25:22;;;;;;;0.05;0.05;;;8.40;99.90;;;;;;5037785;28;20026;-72
2022/12/26 15:27:56;;;;;;;0.00;0.00;;;8.40;99.90;;;;;;5024712;28;20021;-72
2022/12/26 15:30:56;;;;;;;0.00;0.00;;;8.40;99.90;;;;;;5024375;28;20088;-72
2022/12/26 15:34:00;;;;;;;0.32;0.32;;;8.40;99.90;;;;;;5019599;28;20021;-72
2022/12/26 15:36:25;;;;;;;0.38;0.20;;;8.40;99.90;;;;;;4989872;28;20108;-72
2022/12/26 15:39:13;;;;;;;0.00;0.00;;;8.40;99.90;;;;;;5035393;28;20108;-72
2022/12/26 15:41:45;;;;;;;0.00;0.00;;;8.30;99.90;;;;;;5017587;28;20124;-72
2022/12/26 15:44:34;;;;;;;0.00;0.00;;;8.40;99.90;;;;;;5025697;28;20509;-72
2022/12/26 15:47:09;;;;;;;0.32;0.28;;;8.30;99.90;;;;;;5022607;28;20018;-72
2022/12/26 15:49:41;;;;;;;0.00;0.00;;;8.30;99.90;;;;;;5023111;28;20014;-72
2022/12/26 15:52:28;;;;;;;0.00;0.00;;;8.30;99.90;;;;;;5023143;28;20029;-71